Terminal Aerodrome Forecast
Issued by NWS Hastings, NE

Home | Current Version | Previous Version | Text Only | Print | Product List | Glossary On
Versions: 1 2 3 4 5 6 7 8 9 10 11 12 13
000
FTUS43 KGID 172320
TAFGRI
TAF
KGRI 172320Z 1800/1824 VRB05KT P6SM BKN025
     FM180300 VRB04KT P6SM SCT250
     FM180800 22008KT P6SM FEW250
     FM181900 24012G19KT P6SM SKC=

USA.gov is the U.S. government's official web portal to all federal, state and local government web resources and services.